sensor_id;sensor_type;location;lat;lon;timestamp;P1;durP1;ratioP1;P2;durP2;ratioP2
69621;SDS011;56841;55.964;37.674;2023-07-09T00:01:59;23.05;;;13.32;;
69621;SDS011;56841;55.964;37.674;2023-07-09T00:04:25;21.45;;;12.98;;
69621;SDS011;56841;55.964;37.674;2023-07-09T00:06:51;23.52;;;13.73;;
69621;SDS011;56841;55.964;37.674;2023-07-09T00:09:18;23.52;;;13.63;;
69621;SDS011;56841;55.964;37.674;2023-07-09T00:11:45;21.60;;;12.52;;
69621;SDS011;56841;55.964;37.674;2023-07-09T00:14:12;20.65;;;13.32;;
69621;SDS011;56841;55.964;37.674;2023-07-09T00:16:40;23.73;;;13.77;;
69621;SDS011;56841;55.964;37.674;2023-07-09T00:19:13;22.92;;;14.27;;
69621;SDS011;56841;55.964;37.674;2023-07-09T00:21:45;22.77;;;13.77;;
69621;SDS011;56841;55.964;37.674;2023-07-09T00:24:18;23.42;;;13.13;;
69621;SDS011;56841;55.964;37.674;2023-07-09T00:26:44;22.70;;;13.85;;
69621;SDS011;56841;55.964;37.674;2023-07-09T00:29:16;21.33;;;13.38;;
69621;SDS011;56841;55.964;37.674;2023-07-09T00:31:42;23.35;;;13.80;;
69621;SDS011;56841;55.964;37.674;2023-07-09T00:34:10;20.20;;;13.30;;
69621;SDS011;56841;55.964;37.674;2023-07-09T00:36:41;24.15;;;14.13;;
69621;SDS011;56841;55.964;37.674;2023-07-09T00:39:15;22.33;;;14.48;;
69621;SDS011;56841;55.964;37.674;2023-07-09T00:41:44;24.25;;;14.90;;
69621;SDS011;56841;55.964;37.674;2023-07-09T00:49:37;22.73;;;13.98;;
69621;SDS011;56841;55.964;37.674;2023-07-09T00:52:17;24.25;;;12.40;;
69621;SDS011;56841;55.964;37.674;2023-07-09T00:54:49;22.13;;;13.65;;
69621;SDS011;56841;55.964;37.674;2023-07-09T00:57:18;22.70;;;14.77;;
69621;SDS011;56841;55.964;37.674;2023-07-09T01:00:00;21.20;;;12.50;;
69621;SDS011;56841;55.964;37.674;2023-07-09T01:02:38;20.73;;;12.82;;
69621;SDS011;56841;55.964;37.674;2023-07-09T01:05:10;19.83;;;11.95;;
69621;SDS011;56841;55.964;37.674;2023-07-09T01:07:38;21.95;;;13.13;;
69621;SDS011;56841;55.964;37.674;2023-07-09T01:10:04;22.25;;;12.65;;
69621;SDS011;56841;55.964;37.674;2023-07-09T01:12:31;23.92;;;12.95;;
69621;SDS011;56841;55.964;37.674;2023-07-09T01:14:57;22.55;;;12.68;;
69621;SDS011;56841;55.964;37.674;2023-07-09T01:17:27;21.35;;;12.40;;
69621;SDS011;56841;55.964;37.674;2023-07-09T01:19:54;19.20;;;12.23;;
69621;SDS011;56841;55.964;37.674;2023-07-09T01:22:21;19.48;;;11.68;;
69621;SDS011;56841;55.964;37.674;2023-07-09T01:27:27;19.30;;;11.95;;
69621;SDS011;56841;55.964;37.674;2023-07-09T01:29:56;21.08;;;12.95;;
69621;SDS011;56841;55.964;37.674;2023-07-09T01:32:22;19.25;;;11.88;;
69621;SDS011;56841;55.964;37.674;2023-07-09T01:34:50;20.40;;;11.77;;
69621;SDS011;56841;55.964;37.674;2023-07-09T01:37:22;18.30;;;11.75;;
69621;SDS011;56841;55.964;37.674;2023-07-09T01:39:50;17.75;;;12.02;;
69621;SDS011;56841;55.964;37.674;2023-07-09T01:42:17;21.92;;;12.40;;
69621;SDS011;56841;55.964;37.674;2023-07-09T01:44:47;18.80;;;10.95;;
69621;SDS011;56841;55.964;37.674;2023-07-09T01:47:15;19.65;;;11.48;;
69621;SDS011;56841;55.964;37.674;2023-07-09T01:49:42;19.85;;;11.85;;
69621;SDS011;56841;55.964;37.674;2023-07-09T01:52:11;18.63;;;11.45;;
69621;SDS011;56841;55.964;37.674;2023-07-09T01:54:39;22.90;;;12.07;;
69621;SDS011;56841;55.964;37.674;2023-07-09T01:57:17;19.85;;;11.27;;
69621;SDS011;56841;55.964;37.674;2023-07-09T01:59:45;17.17;;;9.98;;
69621;SDS011;56841;55.964;37.674;2023-07-09T02:02:11;16.45;;;10.48;;
69621;SDS011;56841;55.964;37.674;2023-07-09T02:04:40;17.38;;;10.68;;
69621;SDS011;56841;55.964;37.674;2023-07-09T02:07:08;17.70;;;10.90;;
69621;SDS011;56841;55.964;37.674;2023-07-09T02:09:35;17.20;;;10.40;;
69621;SDS011;56841;55.964;37.674;2023-07-09T02:12:00;19.00;;;10.93;;
69621;SDS011;56841;55.964;37.674;2023-07-09T02:14:29;14.57;;;10.32;;
69621;SDS011;56841;55.964;37.674;2023-07-09T02:16:55;19.35;;;11.00;;
69621;SDS011;56841;55.964;37.674;2023-07-09T02:19:22;17.27;;;10.63;;
69621;SDS011;56841;55.964;37.674;2023-07-09T02:21:48;18.27;;;11.20;;
69621;SDS011;56841;55.964;37.674;2023-07-09T02:24:14;15.68;;;10.40;;
69621;SDS011;56841;55.964;37.674;2023-07-09T02:26:41;16.05;;;10.00;;
69621;SDS011;56841;55.964;37.674;2023-07-09T02:29:07;16.70;;;10.48;;
69621;SDS011;56841;55.964;37.674;2023-07-09T02:31:33;16.55;;;10.52;;
69621;SDS011;56841;55.964;37.674;2023-07-09T02:34:00;16.42;;;10.38;;
69621;SDS011;56841;55.964;37.674;2023-07-09T02:36:25;19.30;;;9.30;;
69621;SDS011;56841;55.964;37.674;2023-07-09T02:38:51;15.73;;;10.25;;
69621;SDS011;56841;55.964;37.674;2023-07-09T02:41:17;13.32;;;8.95;;
69621;SDS011;56841;55.964;37.674;2023-07-09T02:43:43;15.10;;;9.30;;
69621;SDS011;56841;55.964;37.674;2023-07-09T02:46:10;13.57;;;8.80;;
69621;SDS011;56841;55.964;37.674;2023-07-09T02:48:36;13.35;;;8.27;;
69621;SDS011;56841;55.964;37.674;2023-07-09T02:51:02;15.27;;;8.60;;
69621;SDS011;56841;55.964;37.674;2023-07-09T02:53:27;15.02;;;8.73;;
69621;SDS011;56841;55.964;37.674;2023-07-09T02:55:54;13.20;;;8.20;;
69621;SDS011;56841;55.964;37.674;2023-07-09T02:58:20;12.48;;;8.02;;
69621;SDS011;56841;55.964;37.674;2023-07-09T03:00:48;13.45;;;7.88;;
69621;SDS011;56841;55.964;37.674;2023-07-09T03:03:17;13.43;;;7.93;;
69621;SDS011;56841;55.964;37.674;2023-07-09T03:05:44;12.23;;;8.02;;
69621;SDS011;56841;55.964;37.674;2023-07-09T03:08:11;13.10;;;7.90;;
69621;SDS011;56841;55.964;37.674;2023-07-09T03:10:37;14.10;;;8.32;;
69621;SDS011;56841;55.964;37.674;2023-07-09T03:13:03;11.98;;;7.63;;
69621;SDS011;56841;55.964;37.674;2023-07-09T03:15:28;11.20;;;7.40;;
69621;SDS011;56841;55.964;37.674;2023-07-09T03:17:54;11.48;;;7.30;;
69621;SDS011;56841;55.964;37.674;2023-07-09T03:20:20;14.07;;;7.30;;
69621;SDS011;56841;55.964;37.674;2023-07-09T03:22:45;14.65;;;7.53;;
69621;SDS011;56841;55.964;37.674;2023-07-09T03:25:11;11.73;;;7.15;;
69621;SDS011;56841;55.964;37.674;2023-07-09T03:27:37;12.25;;;7.38;;
69621;SDS011;56841;55.964;37.674;2023-07-09T03:30:03;13.57;;;7.30;;
69621;SDS011;56841;55.964;37.674;2023-07-09T03:32:31;12.02;;;7.65;;
69621;SDS011;56841;55.964;37.674;2023-07-09T03:34:57;11.38;;;6.90;;
69621;SDS011;56841;55.964;37.674;2023-07-09T03:37:23;11.32;;;6.70;;
69621;SDS011;56841;55.964;37.674;2023-07-09T03:39:48;12.90;;;6.80;;
69621;SDS011;56841;55.964;37.674;2023-07-09T03:42:14;9.60;;;6.25;;
69621;SDS011;56841;55.964;37.674;2023-07-09T03:44:40;12.90;;;7.03;;
69621;SDS011;56841;55.964;37.674;2023-07-09T03:47:06;13.43;;;6.43;;
69621;SDS011;56841;55.964;37.674;2023-07-09T03:49:32;9.93;;;6.80;;
69621;SDS011;56841;55.964;37.674;2023-07-09T03:51:58;10.57;;;6.47;;
69621;SDS011;56841;55.964;37.674;2023-07-09T03:54:24;8.15;;;6.50;;
69621;SDS011;56841;55.964;37.674;2023-07-09T03:56:50;11.35;;;6.70;;
69621;SDS011;56841;55.964;37.674;2023-07-09T03:59:16;11.77;;;6.18;;
69621;SDS011;56841;55.964;37.674;2023-07-09T04:01:42;10.65;;;6.45;;
69621;SDS011;56841;55.964;37.674;2023-07-09T04:04:12;11.73;;;6.72;;
69621;SDS011;56841;55.964;37.674;2023-07-09T04:06:38;11.13;;;6.70;;
69621;SDS011;56841;55.964;37.674;2023-07-09T04:09:04;9.95;;;6.20;;
69621;SDS011;56841;55.964;37.674;2023-07-09T04:11:30;10.45;;;6.35;;
69621;SDS011;56841;55.964;37.674;2023-07-09T04:13:56;9.60;;;6.50;;
69621;SDS011;56841;55.964;37.674;2023-07-09T04:16:21;10.07;;;6.40;;
69621;SDS011;56841;55.964;37.674;2023-07-09T04:18:47;9.30;;;6.03;;
69621;SDS011;56841;55.964;37.674;2023-07-09T04:21:13;9.75;;;6.15;;
69621;SDS011;56841;55.964;37.674;2023-07-09T04:23:39;12.63;;;6.32;;
69621;SDS011;56841;55.964;37.674;2023-07-09T04:26:05;10.90;;;6.10;;
69621;SDS011;56841;55.964;37.674;2023-07-09T04:28:34;8.82;;;5.85;;
69621;SDS011;56841;55.964;37.674;2023-07-09T04:31:00;9.93;;;5.82;;
69621;SDS011;56841;55.964;37.674;2023-07-09T04:33:26;8.70;;;5.68;;
69621;SDS011;56841;55.964;37.674;2023-07-09T04:35:51;11.27;;;5.55;;
69621;SDS011;56841;55.964;37.674;2023-07-09T04:38:17;9.45;;;5.75;;
69621;SDS011;56841;55.964;37.674;2023-07-09T04:40:43;9.15;;;5.60;;
69621;SDS011;56841;55.964;37.674;2023-07-09T04:43:09;9.63;;;5.30;;
69621;SDS011;56841;55.964;37.674;2023-07-09T04:45:35;9.23;;;5.85;;
69621;SDS011;56841;55.964;37.674;2023-07-09T04:48:01;9.23;;;5.40;;
69621;SDS011;56841;55.964;37.674;2023-07-09T04:50:27;6.35;;;4.50;;
69621;SDS011;56841;55.964;37.674;2023-07-09T04:52:52;7.32;;;4.90;;
69621;SDS011;56841;55.964;37.674;2023-07-09T04:55:18;8.20;;;4.30;;
69621;SDS011;56841;55.964;37.674;2023-07-09T04:57:45;8.00;;;4.07;;
69621;SDS011;56841;55.964;37.674;2023-07-09T05:00:11;6.57;;;4.47;;
69621;SDS011;56841;55.964;37.674;2023-07-09T05:02:37;10.63;;;5.80;;
69621;SDS011;56841;55.964;37.674;2023-07-09T05:05:03;6.32;;;3.63;;
69621;SDS011;56841;55.964;37.674;2023-07-09T05:07:30;4.97;;;3.30;;
69621;SDS011;56841;55.964;37.674;2023-07-09T05:09:58;9.32;;;4.43;;
69621;SDS011;56841;55.964;37.674;2023-07-09T05:12:26;5.53;;;3.58;;
69621;SDS011;56841;55.964;37.674;2023-07-09T05:14:52;6.80;;;3.92;;
69621;SDS011;56841;55.964;37.674;2023-07-09T05:17:18;7.47;;;3.78;;
69621;SDS011;56841;55.964;37.674;2023-07-09T05:19:43;5.63;;;3.80;;
69621;SDS011;56841;55.964;37.674;2023-07-09T05:22:09;5.63;;;3.95;;
69621;SDS011;56841;55.964;37.674;2023-07-09T05:24:34;5.18;;;3.70;;
69621;SDS011;56841;55.964;37.674;2023-07-09T05:27:00;5.63;;;3.90;;
69621;SDS011;56841;55.964;37.674;2023-07-09T05:29:26;6.97;;;4.13;;
69621;SDS011;56841;55.964;37.674;2023-07-09T05:31:52;5.93;;;3.50;;
69621;SDS011;56841;55.964;37.674;2023-07-09T05:34:18;7.22;;;3.42;;
69621;SDS011;56841;55.964;37.674;2023-07-09T05:36:43;9.38;;;3.75;;
69621;SDS011;56841;55.964;37.674;2023-07-09T05:39:10;9.65;;;3.83;;
69621;SDS011;56841;55.964;37.674;2023-07-09T05:41:35;6.90;;;3.90;;
69621;SDS011;56841;55.964;37.674;2023-07-09T05:44:01;6.97;;;3.67;;
69621;SDS011;56841;55.964;37.674;2023-07-09T05:46:27;6.50;;;3.80;;
69621;SDS011;56841;55.964;37.674;2023-07-09T05:48:53;6.22;;;3.50;;
69621;SDS011;56841;55.964;37.674;2023-07-09T05:51:18;5.72;;;3.40;;
69621;SDS011;56841;55.964;37.674;2023-07-09T05:53:46;4.88;;;3.00;;
69621;SDS011;56841;55.964;37.674;2023-07-09T05:56:12;4.60;;;2.92;;
69621;SDS011;56841;55.964;37.674;2023-07-09T05:58:38;4.70;;;2.80;;
69621;SDS011;56841;55.964;37.674;2023-07-09T06:01:04;4.70;;;2.75;;
69621;SDS011;56841;55.964;37.674;2023-07-09T06:03:29;5.85;;;3.00;;
69621;SDS011;56841;55.964;37.674;2023-07-09T06:05:56;10.93;;;3.15;;
69621;SDS011;56841;55.964;37.674;2023-07-09T06:08:22;4.50;;;2.88;;
69621;SDS011;56841;55.964;37.674;2023-07-09T06:10:57;5.00;;;2.50;;
69621;SDS011;56841;55.964;37.674;2023-07-09T06:13:25;5.78;;;2.70;;
69621;SDS011;56841;55.964;37.674;2023-07-09T06:15:52;6.25;;;2.90;;
69621;SDS011;56841;55.964;37.674;2023-07-09T06:18:20;6.20;;;3.00;;
69621;SDS011;56841;55.964;37.674;2023-07-09T06:20:48;4.45;;;2.70;;
69621;SDS011;56841;55.964;37.674;2023-07-09T06:23:18;3.40;;;1.95;;
69621;SDS011;56841;55.964;37.674;2023-07-09T06:25:45;4.63;;;2.60;;
69621;SDS011;56841;55.964;37.674;2023-07-09T06:28:14;3.83;;;2.15;;
69621;SDS011;56841;55.964;37.674;2023-07-09T06:30:41;4.50;;;2.70;;
69621;SDS011;56841;55.964;37.674;2023-07-09T06:33:07;3.92;;;2.28;;
69621;SDS011;56841;55.964;37.674;2023-07-09T06:35:33;4.05;;;2.20;;
69621;SDS011;56841;55.964;37.674;2023-07-09T06:37:58;4.75;;;2.22;;
69621;SDS011;56841;55.964;37.674;2023-07-09T06:40:24;4.00;;;2.20;;
69621;SDS011;56841;55.964;37.674;2023-07-09T06:42:50;4.20;;;2.17;;
69621;SDS011;56841;55.964;37.674;2023-07-09T06:45:24;5.63;;;2.42;;
69621;SDS011;56841;55.964;37.674;2023-07-09T06:47:50;3.60;;;1.95;;
69621;SDS011;56841;55.964;37.674;2023-07-09T06:50:16;5.20;;;2.72;;
69621;SDS011;56841;55.964;37.674;2023-07-09T06:52:42;4.85;;;2.60;;
69621;SDS011;56841;55.964;37.674;2023-07-09T06:55:07;4.72;;;2.50;;
69621;SDS011;56841;55.964;37.674;2023-07-09T06:57:33;4.75;;;2.60;;
69621;SDS011;56841;55.964;37.674;2023-07-09T06:59:59;3.88;;;2.60;;
69621;SDS011;56841;55.964;37.674;2023-07-09T07:02:25;4.90;;;2.58;;
69621;SDS011;56841;55.964;37.674;2023-07-09T07:04:51;3.97;;;2.22;;
69621;SDS011;56841;55.964;37.674;2023-07-09T07:07:19;4.53;;;2.25;;
69621;SDS011;56841;55.964;37.674;2023-07-09T07:09:46;3.75;;;2.30;;
69621;SDS011;56841;55.964;37.674;2023-07-09T07:12:19;3.88;;;2.20;;
69621;SDS011;56841;55.964;37.674;2023-07-09T07:14:48;5.70;;;2.38;;
69621;SDS011;56841;55.964;37.674;2023-07-09T07:17:14;3.15;;;2.20;;
69621;SDS011;56841;55.964;37.674;2023-07-09T07:19:40;3.83;;;2.10;;
69621;SDS011;56841;55.964;37.674;2023-07-09T07:22:06;3.63;;;2.33;;
69621;SDS011;56841;55.964;37.674;2023-07-09T07:24:32;5.35;;;2.40;;
69621;SDS011;56841;55.964;37.674;2023-07-09T07:26:58;3.30;;;2.10;;
69621;SDS011;56841;55.964;37.674;2023-07-09T07:29:24;3.85;;;2.42;;
69621;SDS011;56841;55.964;37.674;2023-07-09T07:31:50;5.30;;;2.50;;
69621;SDS011;56841;55.964;37.674;2023-07-09T07:34:16;3.35;;;2.38;;
69621;SDS011;56841;55.964;37.674;2023-07-09T07:36:42;4.05;;;3.05;;
69621;SDS011;56841;55.964;37.674;2023-07-09T07:39:07;11.80;;;6.03;;
69621;SDS011;56841;55.964;37.674;2023-07-09T07:41:33;11.30;;;5.03;;
69621;SDS011;56841;55.964;37.674;2023-07-09T07:43:59;4.85;;;2.83;;
69621;SDS011;56841;55.964;37.674;2023-07-09T07:46:25;9.23;;;3.53;;
69621;SDS011;56841;55.964;37.674;2023-07-09T07:48:51;6.95;;;3.40;;
69621;SDS011;56841;55.964;37.674;2023-07-09T07:51:16;7.25;;;3.42;;
69621;SDS011;56841;55.964;37.674;2023-07-09T07:53:42;5.47;;;3.05;;
69621;SDS011;56841;55.964;37.674;2023-07-09T07:56:07;4.85;;;2.75;;
69621;SDS011;56841;55.964;37.674;2023-07-09T07:58:34;5.75;;;2.58;;
69621;SDS011;56841;55.964;37.674;2023-07-09T08:01:00;4.07;;;2.58;;
69621;SDS011;56841;55.964;37.674;2023-07-09T08:03:25;5.88;;;3.72;;
69621;SDS011;56841;55.964;37.674;2023-07-09T08:05:52;3.90;;;2.10;;
69621;SDS011;56841;55.964;37.674;2023-07-09T08:08:18;4.72;;;2.28;;
69621;SDS011;56841;55.964;37.674;2023-07-09T08:10:44;4.97;;;2.60;;
69621;SDS011;56841;55.964;37.674;2023-07-09T08:13:10;4.13;;;2.50;;
69621;SDS011;56841;55.964;37.674;2023-07-09T08:15:35;5.30;;;2.75;;
69621;SDS011;56841;55.964;37.674;2023-07-09T08:18:02;5.95;;;2.55;;
69621;SDS011;56841;55.964;37.674;2023-07-09T08:20:28;5.18;;;2.83;;
69621;SDS011;56841;55.964;37.674;2023-07-09T08:22:53;7.80;;;2.50;;
69621;SDS011;56841;55.964;37.674;2023-07-09T08:25:19;4.35;;;2.70;;
69621;SDS011;56841;55.964;37.674;2023-07-09T08:27:47;5.07;;;2.75;;
69621;SDS011;56841;55.964;37.674;2023-07-09T08:30:12;3.08;;;2.03;;
69621;SDS011;56841;55.964;37.674;2023-07-09T08:32:38;8.00;;;3.28;;
69621;SDS011;56841;55.964;37.674;2023-07-09T08:35:04;5.95;;;2.50;;
69621;SDS011;56841;55.964;37.674;2023-07-09T08:37:31;3.58;;;2.10;;
69621;SDS011;56841;55.964;37.674;2023-07-09T08:39:57;3.13;;;2.15;;
69621;SDS011;56841;55.964;37.674;2023-07-09T08:42:29;3.85;;;2.22;;
69621;SDS011;56841;55.964;37.674;2023-07-09T08:45:11;4.75;;;2.22;;
69621;SDS011;56841;55.964;37.674;2023-07-09T08:50:17;3.33;;;2.20;;
69621;SDS011;56841;55.964;37.674;2023-07-09T08:52:47;3.35;;;2.10;;
69621;SDS011;56841;55.964;37.674;2023-07-09T08:55:22;4.85;;;2.10;;
69621;SDS011;56841;55.964;37.674;2023-07-09T08:57:55;3.83;;;2.25;;
69621;SDS011;56841;55.964;37.674;2023-07-09T09:00:31;3.83;;;2.20;;
69621;SDS011;56841;55.964;37.674;2023-07-09T09:03:16;4.70;;;3.05;;
69621;SDS011;56841;55.964;37.674;2023-07-09T09:06:10;3.97;;;2.05;;
69621;SDS011;56841;55.964;37.674;2023-07-09T09:14:39;7.35;;;5.15;;
69621;SDS011;56841;55.964;37.674;2023-07-09T09:17:10;3.80;;;2.38;;
69621;SDS011;56841;55.964;37.674;2023-07-09T09:19:50;6.90;;;4.47;;
69621;SDS011;56841;55.964;37.674;2023-07-09T09:22:28;3.25;;;2.15;;
69621;SDS011;56841;55.964;37.674;2023-07-09T09:27:39;3.63;;;1.80;;
69621;SDS011;56841;55.964;37.674;2023-07-09T09:30:09;7.00;;;2.50;;
69621;SDS011;56841;55.964;37.674;2023-07-09T09:32:42;4.95;;;2.45;;
69621;SDS011;56841;55.964;37.674;2023-07-09T09:35:13;3.08;;;2.20;;
69621;SDS011;56841;55.964;37.674;2023-07-09T09:37:43;4.90;;;2.85;;
69621;SDS011;56841;55.964;37.674;2023-07-09T09:40:16;3.28;;;2.40;;
69621;SDS011;56841;55.964;37.674;2023-07-09T09:42:43;3.95;;;2.20;;
69621;SDS011;56841;55.964;37.674;2023-07-09T09:45:13;5.35;;;2.67;;
69621;SDS011;56841;55.964;37.674;2023-07-09T09:47:43;4.45;;;2.60;;
69621;SDS011;56841;55.964;37.674;2023-07-09T09:50:12;5.82;;;2.38;;
69621;SDS011;56841;55.964;37.674;2023-07-09T09:52:39;4.63;;;2.50;;
69621;SDS011;56841;55.964;37.674;2023-07-09T09:55:10;5.13;;;2.40;;
69621;SDS011;56841;55.964;37.674;2023-07-09T09:57:38;5.15;;;2.70;;
69621;SDS011;56841;55.964;37.674;2023-07-09T10:00:04;4.95;;;2.22;;
69621;SDS011;56841;55.964;37.674;2023-07-09T10:02:38;9.52;;;2.80;;
69621;SDS011;56841;55.964;37.674;2023-07-09T10:05:11;5.70;;;3.10;;
69621;SDS011;56841;55.964;37.674;2023-07-09T10:07:39;4.93;;;2.20;;
69621;SDS011;56841;55.964;37.674;2023-07-09T10:10:12;7.03;;;2.08;;
69621;SDS011;56841;55.964;37.674;2023-07-09T10:21:15;3.42;;;2.25;;
69621;SDS011;56841;55.964;37.674;2023-07-09T10:23:48;4.30;;;2.00;;
69621;SDS011;56841;55.964;37.674;2023-07-09T10:29:04;4.63;;;2.50;;
69621;SDS011;56841;55.964;37.674;2023-07-09T10:31:37;9.30;;;2.47;;
69621;SDS011;56841;55.964;37.674;2023-07-09T10:39:46;5.63;;;2.30;;
69621;SDS011;56841;55.964;37.674;2023-07-09T10:42:33;4.78;;;2.20;;
69621;SDS011;56841;55.964;37.674;2023-07-09T10:47:44;3.05;;;1.60;;
69621;SDS011;56841;55.964;37.674;2023-07-09T10:50:28;4.90;;;2.30;;
69621;SDS011;56841;55.964;37.674;2023-07-09T10:52:58;3.78;;;1.90;;
69621;SDS011;56841;55.964;37.674;2023-07-09T10:55:47;3.95;;;2.10;;
69621;SDS011;56841;55.964;37.674;2023-07-09T10:58:25;4.03;;;2.00;;
69621;SDS011;56841;55.964;37.674;2023-07-09T11:00:59;3.53;;;2.10;;
69621;SDS011;56841;55.964;37.674;2023-07-09T11:04:11;3.00;;;1.80;;
69621;SDS011;56841;55.964;37.674;2023-07-09T11:06:18;3.17;;;1.92;;
69621;SDS011;56841;55.964;37.674;2023-07-09T11:08:55;5.90;;;2.40;;
69621;SDS011;56841;55.964;37.674;2023-07-09T11:14:08;3.95;;;2.28;;
69621;SDS011;56841;55.964;37.674;2023-07-09T11:16:44;3.65;;;2.08;;
69621;SDS011;56841;55.964;37.674;2023-07-09T11:19:13;3.08;;;2.15;;
69621;SDS011;56841;55.964;37.674;2023-07-09T11:21:57;5.22;;;2.20;;
69621;SDS011;56841;55.964;37.674;2023-07-09T11:24:35;5.15;;;2.85;;
69621;SDS011;56841;55.964;37.674;2023-07-09T11:27:17;4.78;;;2.83;;
69621;SDS011;56841;55.964;37.674;2023-07-09T11:29:48;5.70;;;2.38;;
69621;SDS011;56841;55.964;37.674;2023-07-09T11:32:22;5.75;;;2.90;;
69621;SDS011;56841;55.964;37.674;2023-07-09T11:34:48;4.88;;;2.50;;
69621;SDS011;56841;55.964;37.674;2023-07-09T11:37:14;5.32;;;3.00;;
69621;SDS011;56841;55.964;37.674;2023-07-09T11:44:54;4.38;;;2.75;;
69621;SDS011;56841;55.964;37.674;2023-07-09T11:47:37;3.88;;;2.30;;
69621;SDS011;56841;55.964;37.674;2023-07-09T11:50:10;5.03;;;2.90;;
69621;SDS011;56841;55.964;37.674;2023-07-09T11:52:51;6.03;;;2.33;;
69621;SDS011;56841;55.964;37.674;2023-07-09T11:57:54;4.10;;;2.10;;
69621;SDS011;56841;55.964;37.674;2023-07-09T12:00:21;4.18;;;2.90;;
69621;SDS011;56841;55.964;37.674;2023-07-09T12:02:47;6.20;;;3.13;;
69621;SDS011;56841;55.964;37.674;2023-07-09T12:05:18;5.50;;;3.03;;
69621;SDS011;56841;55.964;37.674;2023-07-09T12:07:46;4.18;;;2.53;;
69621;SDS011;56841;55.964;37.674;2023-07-09T12:10:17;4.35;;;2.80;;
69621;SDS011;56841;55.964;37.674;2023-07-09T12:12:48;4.82;;;2.80;;
69621;SDS011;56841;55.964;37.674;2023-07-09T12:15:19;4.50;;;2.65;;
69621;SDS011;56841;55.964;37.674;2023-07-09T12:20:23;7.68;;;4.00;;
69621;SDS011;56841;55.964;37.674;2023-07-09T12:22:49;6.28;;;2.83;;
69621;SDS011;56841;55.964;37.674;2023-07-09T12:25:19;4.43;;;2.80;;
69621;SDS011;56841;55.964;37.674;2023-07-09T12:27:48;8.82;;;3.92;;
69621;SDS011;56841;55.964;37.674;2023-07-09T12:30:14;4.93;;;3.20;;
69621;SDS011;56841;55.964;37.674;2023-07-09T12:32:46;10.40;;;4.30;;
69621;SDS011;56841;55.964;37.674;2023-07-09T12:35:15;5.10;;;3.17;;
69621;SDS011;56841;55.964;37.674;2023-07-09T12:37:43;4.07;;;2.60;;
69621;SDS011;56841;55.964;37.674;2023-07-09T12:40:17;4.20;;;2.33;;
69621;SDS011;56841;55.964;37.674;2023-07-09T12:42:47;7.85;;;2.50;;
69621;SDS011;56841;55.964;37.674;2023-07-09T12:45:17;4.72;;;2.40;;
69621;SDS011;56841;55.964;37.674;2023-07-09T12:47:46;5.57;;;2.40;;
69621;SDS011;56841;55.964;37.674;2023-07-09T12:50:32;2.85;;;2.03;;
69621;SDS011;56841;55.964;37.674;2023-07-09T12:53:01;4.50;;;2.40;;
69621;SDS011;56841;55.964;37.674;2023-07-09T12:55:37;3.63;;;2.00;;
69621;SDS011;56841;55.964;37.674;2023-07-09T12:58:07;5.10;;;3.08;;
69621;SDS011;56841;55.964;37.674;2023-07-09T13:00:36;6.95;;;3.95;;
69621;SDS011;56841;55.964;37.674;2023-07-09T13:03:02;4.68;;;2.75;;
69621;SDS011;56841;55.964;37.674;2023-07-09T13:05:28;7.03;;;4.25;;
69621;SDS011;56841;55.964;37.674;2023-07-09T13:07:58;7.47;;;3.88;;
69621;SDS011;56841;55.964;37.674;2023-07-09T13:10:31;6.85;;;3.50;;
69621;SDS011;56841;55.964;37.674;2023-07-09T13:13:04;5.68;;;2.35;;
69621;SDS011;56841;55.964;37.674;2023-07-09T13:18:05;5.97;;;3.55;;
69621;SDS011;56841;55.964;37.674;2023-07-09T13:20:34;4.93;;;2.55;;
69621;SDS011;56841;55.964;37.674;2023-07-09T13:23:09;4.30;;;2.45;;
69621;SDS011;56841;55.964;37.674;2023-07-09T13:25:43;4.47;;;2.63;;
69621;SDS011;56841;55.964;37.674;2023-07-09T13:30:46;3.95;;;2.40;;
69621;SDS011;56841;55.964;37.674;2023-07-09T13:33:12;3.90;;;2.70;;
69621;SDS011;56841;55.964;37.674;2023-07-09T13:35:39;3.92;;;2.42;;
69621;SDS011;56841;55.964;37.674;2023-07-09T13:38:17;5.05;;;2.53;;
69621;SDS011;56841;55.964;37.674;2023-07-09T13:40:46;4.60;;;2.85;;
69621;SDS011;56841;55.964;37.674;2023-07-09T13:43:26;3.95;;;2.90;;
69621;SDS011;56841;55.964;37.674;2023-07-09T13:45:55;7.20;;;3.30;;
69621;SDS011;56841;55.964;37.674;2023-07-09T13:48:25;5.63;;;3.78;;
69621;SDS011;56841;55.964;37.674;2023-07-09T13:50:52;10.00;;;4.78;;
69621;SDS011;56841;55.964;37.674;2023-07-09T13:53:23;7.30;;;4.13;;
69621;SDS011;56841;55.964;37.674;2023-07-09T13:55:52;6.20;;;3.53;;
69621;SDS011;56841;55.964;37.674;2023-07-09T13:58:19;5.70;;;2.92;;
69621;SDS011;56841;55.964;37.674;2023-07-09T14:00:48;5.20;;;2.70;;
69621;SDS011;56841;55.964;37.674;2023-07-09T14:03:17;8.43;;;4.43;;
69621;SDS011;56841;55.964;37.674;2023-07-09T14:05:46;6.05;;;3.30;;
69621;SDS011;56841;55.964;37.674;2023-07-09T14:08:12;6.45;;;3.90;;
69621;SDS011;56841;55.964;37.674;2023-07-09T14:10:39;6.03;;;3.00;;
69621;SDS011;56841;55.964;37.674;2023-07-09T14:13:05;4.65;;;3.00;;
69621;SDS011;56841;55.964;37.674;2023-07-09T14:15:38;5.22;;;2.70;;
69621;SDS011;56841;55.964;37.674;2023-07-09T14:18:04;3.70;;;2.75;;
69621;SDS011;56841;55.964;37.674;2023-07-09T14:20:31;4.35;;;2.03;;
69621;SDS011;56841;55.964;37.674;2023-07-09T14:22:56;2.80;;;2.20;;
69621;SDS011;56841;55.964;37.674;2023-07-09T14:25:23;3.83;;;1.73;;
69621;SDS011;56841;55.964;37.674;2023-07-09T14:27:50;6.40;;;4.15;;
69621;SDS011;56841;55.964;37.674;2023-07-09T14:30:19;6.10;;;3.70;;
69621;SDS011;56841;55.964;37.674;2023-07-09T14:32:47;5.50;;;3.20;;
69621;SDS011;56841;55.964;37.674;2023-07-09T14:35:19;5.13;;;2.80;;
69621;SDS011;56841;55.964;37.674;2023-07-09T14:37:51;7.68;;;2.95;;
69621;SDS011;56841;55.964;37.674;2023-07-09T14:40:20;4.82;;;2.50;;
69621;SDS011;56841;55.964;37.674;2023-07-09T14:42:47;5.63;;;2.85;;
69621;SDS011;56841;55.964;37.674;2023-07-09T14:45:18;7.20;;;4.30;;
69621;SDS011;56841;55.964;37.674;2023-07-09T14:47:53;4.97;;;2.80;;
69621;SDS011;56841;55.964;37.674;2023-07-09T14:50:20;5.38;;;3.15;;
69621;SDS011;56841;55.964;37.674;2023-07-09T14:52:48;9.15;;;5.15;;
69621;SDS011;56841;55.964;37.674;2023-07-09T14:55:18;5.47;;;3.60;;
69621;SDS011;56841;55.964;37.674;2023-07-09T14:57:46;4.40;;;2.42;;
69621;SDS011;56841;55.964;37.674;2023-07-09T15:00:13;4.63;;;2.33;;
69621;SDS011;56841;55.964;37.674;2023-07-09T15:02:44;4.18;;;2.20;;
69621;SDS011;56841;55.964;37.674;2023-07-09T15:05:15;3.40;;;2.10;;
69621;SDS011;56841;55.964;37.674;2023-07-09T15:07:44;3.25;;;1.65;;
69621;SDS011;56841;55.964;37.674;2023-07-09T15:10:14;5.35;;;1.95;;
69621;SDS011;56841;55.964;37.674;2023-07-09T15:12:41;4.78;;;2.30;;
69621;SDS011;56841;55.964;37.674;2023-07-09T15:15:27;5.57;;;2.75;;
69621;SDS011;56841;55.964;37.674;2023-07-09T15:17:55;3.60;;;2.35;;
69621;SDS011;56841;55.964;37.674;2023-07-09T15:20:22;4.55;;;1.98;;
69621;SDS011;56841;55.964;37.674;2023-07-09T15:22:51;3.85;;;2.33;;
69621;SDS011;56841;55.964;37.674;2023-07-09T15:25:20;5.80;;;2.85;;
69621;SDS011;56841;55.964;37.674;2023-07-09T15:27:50;3.15;;;2.20;;
69621;SDS011;56841;55.964;37.674;2023-07-09T15:30:25;4.47;;;2.45;;
69621;SDS011;56841;55.964;37.674;2023-07-09T15:32:55;3.97;;;2.63;;
69621;SDS011;56841;55.964;37.674;2023-07-09T15:35:23;3.50;;;2.80;;